Time;durP1;ratioP1;P1;durP2;ratioP2;P2;SDS_P1;SDS_P2;PMS_P1;PMS_P2;Temp;Humidity;BMP_temperature;BMP_pressure;BME280_temperature;BME280_humidity;BME280_pressure;Samples;Min_cycle;Max_cycle;Signal;HPM_P1;HPM_P2
2022/03/10 00:00:20;;;;;;;14.35;6.60;;;-1.40;99.90;;;;;;5078015;28;20023;-69
2022/03/10 00:02:47;;;;;;;16.33;6.43;;;-1.50;99.90;;;;;;5077145;28;20035;-69
2022/03/10 00:05:15;;;;;;;11.15;5.97;;;-1.50;99.90;;;;;;5076511;28;20108;-69
2022/03/10 00:07:43;;;;;;;13.80;6.63;;;-1.50;99.90;;;;;;5076658;28;20035;-69
2022/03/10 00:10:13;;;;;;;12.25;6.25;;;-1.50;99.90;;;;;;5076399;28;20051;-69
2022/03/10 00:12:52;;;;;;;14.02;6.57;;;-1.50;99.90;;;;;;5077049;28;20021;-69
2022/03/10 00:15:24;;;;;;;17.13;6.88;;;-1.50;99.90;;;;;;5076371;28;20032;-69
2022/03/10 00:17:52;;;;;;;17.65;8.05;;;-1.50;99.90;;;;;;5073289;28;20048;-69
2022/03/10 00:20:21;;;;;;;18.08;6.78;;;-1.50;99.90;;;;;;5096604;28;20301;-69
2022/03/10 00:22:51;;;;;;;13.10;7.03;;;-1.60;99.90;;;;;;5097199;28;20024;-69
2022/03/10 00:25:21;;;;;;;14.35;6.47;;;-1.60;99.90;;;;;;5096888;28;20020;-69
2022/03/10 00:27:51;;;;;;;13.90;6.55;;;-1.60;99.90;;;;;;5097575;28;20065;-69
2022/03/10 00:30:20;;;;;;;15.77;6.75;;;-1.60;99.90;;;;;;5097271;28;20051;-69
2022/03/10 00:32:52;;;;;;;14.65;7.22;;;-1.60;99.90;;;;;;5097437;28;20024;-69
2022/03/10 00:35:21;;;;;;;17.75;7.90;;;-1.60;99.90;;;;;;5097391;28;20017;-69
2022/03/10 00:37:49;;;;;;;12.18;6.05;;;-1.60;99.90;;;;;;5098087;28;20016;-69
2022/03/10 00:40:18;;;;;;;14.13;7.35;;;-1.70;99.90;;;;;;5097334;28;20078;-69
2022/03/10 00:42:46;;;;;;;13.95;7.03;;;-1.70;99.90;;;;;;5097344;28;20032;-69
2022/03/10 00:45:15;;;;;;;18.40;7.05;;;-1.70;99.90;;;;;;5095916;28;20060;-69
2022/03/10 00:47:43;;;;;;;13.38;6.38;;;-1.70;99.90;;;;;;5096588;28;20035;-69
2022/03/10 00:50:11;;;;;;;19.98;7.95;;;-1.70;99.90;;;;;;5096309;28;20030;-69
2022/03/10 00:52:44;;;;;;;14.63;6.80;;;-1.80;99.90;;;;;;5095303;28;20024;-69
2022/03/10 00:55:17;;;;;;;15.30;7.00;;;-1.80;99.90;;;;;;5096610;28;20435;-69
2022/03/10 00:57:45;;;;;;;14.32;6.72;;;-1.80;99.90;;;;;;5095445;28;20039;-69
2022/03/10 01:00:13;;;;;;;11.88;5.90;;;-1.80;99.90;;;;;;5095476;28;20123;-69
2022/03/10 01:02:42;;;;;;;14.32;6.85;;;-1.90;99.90;;;;;;5095612;28;20423;-69
2022/03/10 01:05:10;;;;;;;11.10;6.15;;;-1.90;99.90;;;;;;5096175;28;20028;-69
2022/03/10 01:07:38;;;;;;;13.25;6.28;;;-2.00;99.90;;;;;;5096800;28;20031;-69
2022/03/10 01:10:08;;;;;;;15.63;7.35;;;-2.00;99.90;;;;;;5099460;28;20020;-69
2022/03/10 01:12:40;;;;;;;19.02;7.45;;;-2.00;99.90;;;;;;5101469;28;20081;-69
2022/03/10 01:15:11;;;;;;;13.45;6.55;;;-2.00;99.90;;;;;;5101692;28;20020;-69
2022/03/10 01:17:39;;;;;;;13.65;7.00;;;-2.10;99.90;;;;;;5093638;28;20044;-69
2022/03/10 01:20:08;;;;;;;14.18;6.53;;;-2.10;99.90;;;;;;5062704;28;20039;-69
2022/03/10 01:22:36;;;;;;;14.88;6.40;;;-2.10;99.90;;;;;;5080753;28;20056;-69
2022/03/10 01:25:07;;;;;;;20.75;8.38;;;-2.10;99.90;;;;;;5080357;28;20101;-69
2022/03/10 01:27:35;;;;;;;23.83;9.57;;;-2.10;99.90;;;;;;5080340;28;20021;-69
2022/03/10 01:30:03;;;;;;;17.75;8.18;;;-2.10;99.90;;;;;;5062217;28;20028;-69
2022/03/10 01:32:31;;;;;;;16.73;7.32;;;-2.10;99.90;;;;;;5079258;28;20082;-68
2022/03/10 01:34:59;;;;;;;11.60;6.20;;;-2.10;99.90;;;;;;5079264;28;20021;-69
2022/03/10 01:37:27;;;;;;;13.70;6.63;;;-2.10;99.90;;;;;;5079807;28;20013;-69
2022/03/10 01:39:55;;;;;;;11.85;6.05;;;-2.10;99.90;;;;;;5079373;28;20044;-69
2022/03/10 01:42:25;;;;;;;12.75;6.15;;;-2.20;99.90;;;;;;5079117;28;20487;-69
2022/03/10 01:44:54;;;;;;;15.85;7.38;;;-2.20;99.90;;;;;;5079082;28;20028;-69
2022/03/10 01:47:21;;;;;;;15.85;7.03;;;-2.20;99.90;;;;;;5061186;28;20035;-69
2022/03/10 01:49:49;;;;;;;15.00;7.35;;;-2.20;99.90;;;;;;5079673;28;20013;-69
2022/03/10 01:52:18;;;;;;;18.20;7.38;;;-2.10;99.90;;;;;;5062454;28;20048;-69
2022/03/10 01:54:47;;;;;;;18.48;7.50;;;-2.10;99.90;;;;;;5079891;28;20020;-69
2022/03/10 01:57:15;;;;;;;16.70;7.82;;;-2.10;99.90;;;;;;5080316;28;20044;-69
2022/03/10 01:59:42;;;;;;;15.82;7.07;;;-2.20;99.90;;;;;;5062188;28;20051;-69
2022/03/10 02:02:11;;;;;;;13.77;6.82;;;-2.20;99.90;;;;;;5079784;28;20066;-69
2022/03/10 02:04:39;;;;;;;15.65;7.40;;;-2.20;99.90;;;;;;5062095;28;20312;-69
2022/03/10 02:10:16;;;;;;;15.57;6.60;;;-2.20;99.90;;;;;;5079537;28;20028;-69
2022/03/10 02:10:17;;;;;;;15.10;6.20;;;-2.30;99.90;;;;;;5077634;28;20029;-69
2022/03/10 02:12:48;;;;;;;13.55;6.22;;;-2.30;99.90;;;;;;5078872;28;20023;-69
2022/03/10 02:18:12;;;;;;;13.95;6.13;;;-2.40;99.90;;;;;;5078702;28;20098;-69
2022/03/10 02:20:40;;;;;;;19.90;8.18;;;-2.40;99.90;;;;;;5078112;28;20025;-69
2022/03/10 02:23:11;;;;;;;16.55;7.32;;;-2.50;99.90;;;;;;5078374;28;20048;-69
2022/03/10 02:25:40;;;;;;;17.52;8.10;;;-2.50;99.90;;;;;;5078339;28;20024;-69
2022/03/10 02:28:08;;;;;;;17.90;7.70;;;-2.40;99.90;;;;;;5078998;28;20373;-69
2022/03/10 02:30:36;;;;;;;15.50;6.43;;;-2.40;99.90;;;;;;5060271;28;20036;-69
2022/03/10 02:33:04;;;;;;;15.60;6.85;;;-2.40;99.90;;;;;;5079188;28;20021;-69
2022/03/10 02:35:32;;;;;;;12.55;6.38;;;-2.50;99.90;;;;;;5079057;28;20104;-69
2022/03/10 02:38:00;;;;;;;17.08;7.47;;;-2.50;99.90;;;;;;5079167;28;20017;-69
2022/03/10 02:40:28;;;;;;;21.27;7.30;;;-2.40;99.90;;;;;;5079503;28;20052;-69
2022/03/10 02:42:57;;;;;;;15.85;7.60;;;-2.40;99.90;;;;;;5079494;28;20382;-69
2022/03/10 02:45:25;;;;;;;13.88;7.25;;;-2.50;99.90;;;;;;5061559;28;20077;-69
2022/03/10 02:47:52;;;;;;;13.32;6.40;;;-2.50;99.90;;;;;;5079480;28;20028;-69
2022/03/10 02:50:20;;;;;;;15.32;7.07;;;-2.50;99.90;;;;;;5079209;28;20427;-69
2022/03/10 02:52:47;;;;;;;15.30;7.00;;;-2.50;99.90;;;;;;5078824;28;20316;-69
2022/03/10 02:55:16;;;;;;;14.82;6.28;;;-2.60;99.90;;;;;;5077792;28;20059;-69
2022/03/10 02:57:44;;;;;;;14.00;5.78;;;-2.60;99.90;;;;;;5077773;28;20021;-69
2022/03/10 03:00:14;;;;;;;18.55;5.95;;;-2.60;99.90;;;;;;5078095;28;20020;-69
2022/03/10 03:02:42;;;;;;;12.68;5.65;;;-2.60;99.90;;;;;;5077493;28;20033;-69
2022/03/10 03:05:16;;;;;;;13.13;7.20;;;-2.70;99.90;;;;;;5077450;28;20021;-69
2022/03/10 03:07:46;;;;;;;13.35;6.85;;;-2.70;99.90;;;;;;5078202;28;20031;-69
2022/03/10 03:10:15;;;;;;;14.30;6.57;;;-2.70;99.90;;;;;;5059549;28;20051;-69
2022/03/10 03:12:48;;;;;;;15.30;7.15;;;-2.70;99.90;;;;;;5077942;28;20401;-69
2022/03/10 03:15:17;;;;;;;15.77;6.97;;;-2.80;99.90;;;;;;5077904;28;20032;-69
2022/03/10 03:17:45;;;;;;;14.70;7.18;;;-2.80;99.90;;;;;;5078261;28;20468;-69
2022/03/10 03:20:15;;;;;;;15.10;7.68;;;-2.80;99.90;;;;;;5078178;28;20025;-69
2022/03/10 03:22:43;;;;;;;16.30;7.47;;;-2.70;99.90;;;;;;5078360;28;20112;-69
2022/03/10 03:25:16;;;;;;;14.90;6.90;;;-2.70;99.90;;;;;;5060293;28;20058;-69
2022/03/10 03:27:44;;;;;;;14.63;6.68;;;-2.70;99.90;;;;;;5078023;28;20028;-69
2022/03/10 03:30:12;;;;;;;16.63;7.38;;;-2.70;99.90;;;;;;5077873;28;20028;-69
2022/03/10 03:32:40;;;;;;;15.15;6.75;;;-2.70;99.90;;;;;;5076371;28;20336;-69
2022/03/10 03:35:08;;;;;;;14.95;7.25;;;-2.70;99.90;;;;;;5060206;28;20185;-69
2022/03/10 03:37:35;;;;;;;19.15;6.43;;;-2.70;99.90;;;;;;5076915;28;20021;-69
2022/03/10 03:40:04;;;;;;;17.05;7.30;;;-2.70;99.90;;;;;;5076843;28;20028;-69
2022/03/10 03:42:34;;;;;;;13.95;6.47;;;-2.80;99.90;;;;;;5059140;28;20305;-69
2022/03/10 03:45:01;;;;;;;14.40;7.15;;;-2.80;99.90;;;;;;5076834;28;20028;-69
2022/03/10 03:47:28;;;;;;;15.00;7.30;;;-2.80;99.90;;;;;;5076697;28;20031;-69
2022/03/10 03:49:57;;;;;;;16.20;7.78;;;-2.80;99.90;;;;;;5076654;28;20024;-69
2022/03/10 03:52:24;;;;;;;13.40;6.03;;;-2.90;99.90;;;;;;5058968;28;20027;-69
2022/03/10 03:54:53;;;;;;;16.10;6.97;;;-2.80;99.90;;;;;;5076845;28;20044;-69
2022/03/10 03:57:20;;;;;;;15.88;6.47;;;-2.80;99.90;;;;;;5076668;28;20020;-70
2022/03/10 03:59:48;;;;;;;16.52;6.57;;;-2.80;99.90;;;;;;5059788;28;20115;-69
2022/03/10 04:02:15;;;;;;;17.17;6.82;;;-2.80;99.90;;;;;;5077391;28;20103;-69
2022/03/10 04:04:44;;;;;;;12.38;6.30;;;-2.90;99.90;;;;;;5078199;28;20024;-69
2022/03/10 04:07:11;;;;;;;14.70;6.35;;;-2.80;99.90;;;;;;5078005;28;20017;-69
2022/03/10 04:09:38;;;;;;;16.73;7.68;;;-2.90;99.90;;;;;;5078028;28;20021;-69
2022/03/10 04:12:06;;;;;;;17.63;6.97;;;-2.90;99.90;;;;;;5059582;28;20025;-69
2022/03/10 04:14:33;;;;;;;17.00;6.78;;;-2.90;99.90;;;;;;5059744;28;20027;-69
2022/03/10 04:17:01;;;;;;;17.40;7.85;;;-2.90;99.90;;;;;;5077273;28;20017;-69
2022/03/10 04:19:28;;;;;;;17.02;7.90;;;-2.90;99.90;;;;;;5077093;28;20044;-69
2022/03/10 04:21:55;;;;;;;16.77;7.05;;;-2.90;99.90;;;;;;5076408;28;20024;-69
2022/03/10 04:24:23;;;;;;;13.95;6.80;;;-2.90;99.90;;;;;;5058718;28;20028;-69
2022/03/10 04:26:51;;;;;;;14.63;6.90;;;-2.90;99.90;;;;;;5058519;28;20306;-69
2022/03/10 04:29:19;;;;;;;15.80;6.88;;;-2.90;99.90;;;;;;5076370;28;20329;-69
2022/03/10 04:31:46;;;;;;;16.77;7.45;;;-2.90;99.90;;;;;;5076397;28;20024;-69
2022/03/10 04:34:14;;;;;;;13.95;6.75;;;-2.90;99.90;;;;;;5058306;28;20048;-69
2022/03/10 04:36:42;;;;;;;17.38;7.38;;;-2.90;99.90;;;;;;5076287;28;20017;-69
2022/03/10 04:39:09;;;;;;;16.63;7.03;;;-2.90;99.90;;;;;;5058407;28;20070;-69
2022/03/10 04:41:37;;;;;;;15.60;7.78;;;-2.90;99.90;;;;;;5058890;28;20020;-69
2022/03/10 04:44:05;;;;;;;18.15;7.53;;;-2.90;99.90;;;;;;5079853;28;20024;-69
2022/03/10 04:46:32;;;;;;;14.85;7.20;;;-2.90;99.90;;;;;;5063265;28;20024;-69
2022/03/10 04:49:00;;;;;;;21.65;7.82;;;-2.90;99.90;;;;;;5063405;28;20024;-69
2022/03/10 04:51:27;;;;;;;16.95;7.78;;;-3.00;99.90;;;;;;5081203;28;20119;-69
2022/03/10 04:53:55;;;;;;;20.27;8.18;;;-3.00;99.90;;;;;;5081237;28;20107;-69
2022/03/10 04:56:22;;;;;;;18.80;8.73;;;-3.00;99.90;;;;;;5063148;28;20036;-69
2022/03/10 04:58:51;;;;;;;21.58;9.90;;;-3.00;99.90;;;;;;5081478;28;20024;-69
2022/03/10 05:01:18;;;;;;;19.65;8.20;;;-3.00;99.90;;;;;;5062652;28;20032;-69
2022/03/10 05:03:46;;;;;;;23.65;9.55;;;-3.00;99.90;;;;;;5062301;28;20110;-69
2022/03/10 05:06:14;;;;;;;18.58;8.43;;;-3.00;99.90;;;;;;5079812;28;20328;-69
2022/03/10 05:08:42;;;;;;;16.02;8.25;;;-3.00;99.90;;;;;;5079816;28;20112;-69
2022/03/10 05:11:10;;;;;;;23.83;9.20;;;-3.00;99.90;;;;;;5080158;28;20021;-69
2022/03/10 05:13:37;;;;;;;24.55;9.63;;;-3.00;99.90;;;;;;5080422;28;20393;-69
2022/03/10 05:16:05;;;;;;;19.92;9.00;;;-3.00;99.90;;;;;;5080132;28;20020;-69
2022/03/10 05:18:33;;;;;;;20.02;9.25;;;-3.00;99.90;;;;;;5080472;28;20432;-69
2022/03/10 05:21:01;;;;;;;19.50;8.63;;;-3.10;99.90;;;;;;5061717;28;20032;-69
2022/03/10 05:23:29;;;;;;;17.98;8.63;;;-3.10;99.90;;;;;;5079835;28;20048;-69
2022/03/10 05:25:57;;;;;;;20.38;8.65;;;-3.10;99.90;;;;;;5080361;28;20020;-69
2022/03/10 05:28:24;;;;;;;25.10;9.52;;;-3.10;99.90;;;;;;5080316;28;20029;-69
2022/03/10 05:30:52;;;;;;;22.50;8.55;;;-3.10;99.90;;;;;;5062295;28;20115;-69
2022/03/10 05:33:20;;;;;;;17.25;7.57;;;-3.10;99.90;;;;;;5080802;28;20043;-69
2022/03/10 05:35:47;;;;;;;18.88;7.60;;;-3.20;99.90;;;;;;5080761;28;20027;-69
2022/03/10 05:38:15;;;;;;;16.50;7.85;;;-3.20;99.90;;;;;;5080842;28;20031;-69
2022/03/10 05:40:42;;;;;;;15.90;7.53;;;-3.20;99.90;;;;;;5062326;28;20024;-69
2022/03/10 05:43:10;;;;;;;15.98;7.57;;;-3.20;99.90;;;;;;5079947;28;20025;-69
2022/03/10 05:45:37;;;;;;;17.75;8.00;;;-3.30;99.90;;;;;;5079576;28;20085;-69
2022/03/10 05:48:05;;;;;;;21.08;7.80;;;-3.30;99.90;;;;;;5079147;28;20132;-69
2022/03/10 05:50:32;;;;;;;17.77;8.60;;;-3.30;99.90;;;;;;5077133;28;20035;-69
2022/03/10 05:53:00;;;;;;;14.82;7.28;;;-3.20;99.90;;;;;;5061432;28;20039;-69
2022/03/10 05:55:28;;;;;;;14.77;7.18;;;-3.30;99.90;;;;;;5078753;28;20416;-69
2022/03/10 05:57:59;;;;;;;16.80;6.38;;;-3.30;99.90;;;;;;5079071;28;20427;-69
2022/03/10 06:00:26;;;;;;;18.55;8.00;;;-3.20;99.90;;;;;;5079028;28;20356;-69
2022/03/10 06:02:54;;;;;;;18.77;8.38;;;-3.30;99.90;;;;;;5060902;28;20115;-69
2022/03/10 06:05:21;;;;;;;17.52;7.90;;;-3.20;99.90;;;;;;5060931;28;20021;-69
2022/03/10 06:07:50;;;;;;;18.83;7.13;;;-3.20;99.90;;;;;;5061792;28;20028;-69
2022/03/10 06:10:17;;;;;;;17.02;7.43;;;-3.20;99.90;;;;;;5061710;28;20028;-69
2022/03/10 06:12:45;;;;;;;18.50;8.38;;;-3.20;99.90;;;;;;5079616;28;20099;-69
2022/03/10 06:15:13;;;;;;;29.55;8.40;;;-3.10;99.90;;;;;;5079471;28;20099;-69
2022/03/10 06:17:41;;;;;;;18.48;8.23;;;-3.10;99.90;;;;;;5069332;28;20047;-69
2022/03/10 06:20:10;;;;;;;15.63;8.00;;;-3.10;99.90;;;;;;5099697;28;20024;-69
2022/03/10 06:22:38;;;;;;;16.50;8.07;;;-3.10;99.90;;;;;;5099839;28;20047;-69
2022/03/10 06:25:06;;;;;;;15.90;7.80;;;-3.00;99.90;;;;;;5100021;28;20081;-69
2022/03/10 06:27:34;;;;;;;16.58;7.80;;;-3.00;99.90;;;;;;5095970;28;20111;-69
2022/03/10 06:30:01;;;;;;;16.45;7.43;;;-3.00;99.90;;;;;;5097440;28;20479;-69
2022/03/10 06:32:29;;;;;;;21.73;8.68;;;-3.00;99.90;;;;;;5099225;28;20396;-69
2022/03/10 06:34:59;;;;;;;19.40;7.80;;;-2.90;99.90;;;;;;5097421;28;20020;-69
2022/03/10 06:37:28;;;;;;;18.10;7.30;;;-2.90;99.90;;;;;;5098400;28;20332;-68
2022/03/10 06:39:55;;;;;;;17.85;8.18;;;-2.90;99.90;;;;;;5098919;28;20316;-69
2022/03/10 06:42:23;;;;;;;15.18;6.93;;;-2.80;99.90;;;;;;5098193;28;20027;-69
2022/03/10 06:44:51;;;;;;;17.45;6.70;;;-2.80;99.90;;;;;;5098802;28;20024;-69
2022/03/10 06:47:19;;;;;;;17.45;7.68;;;-2.80;99.90;;;;;;5097016;28;20024;-69
2022/03/10 06:49:47;;;;;;;19.00;7.80;;;-2.80;99.90;;;;;;5099088;28;20078;-69
2022/03/10 06:52:14;;;;;;;19.80;8.20;;;-2.80;99.90;;;;;;5098144;28;20052;-74
2022/03/10 06:54:43;;;;;;;21.80;7.75;;;-2.80;99.90;;;;;;5099049;28;20026;-74
2022/03/10 06:57:12;;;;;;;19.75;8.23;;;-2.70;99.90;;;;;;5095604;28;20424;-73
2022/03/10 06:59:39;;;;;;;20.27;9.27;;;-2.70;99.90;;;;;;5099474;28;20023;-72
2022/03/10 07:02:07;;;;;;;21.60;8.98;;;-2.60;99.90;;;;;;5098835;28;20024;-72
2022/03/10 07:04:35;;;;;;;53.25;22.60;;;-2.50;99.90;;;;;;5099105;28;20073;-72
2022/03/10 07:07:04;;;;;;;53.20;24.67;;;-2.50;99.90;;;;;;5096750;28;20063;-72
2022/03/10 07:09:32;;;;;;;50.40;20.55;;;-2.40;99.90;;;;;;5095501;28;20055;-76
2022/03/10 07:12:00;;;;;;;36.00;17.95;;;-2.30;99.90;;;;;;5096603;28;20032;-74
2022/03/10 07:14:27;;;;;;;26.08;12.27;;;-2.30;99.90;;;;;;5095511;28;20044;-73
2022/03/10 07:16:56;;;;;;;26.85;13.00;;;-2.20;99.90;;;;;;5097675;28;20039;-76
2022/03/10 07:19:23;;;;;;;30.80;16.15;;;-2.10;99.90;;;;;;5096327;28;20100;-74
2022/03/10 07:21:51;;;;;;;28.15;13.55;;;-2.00;99.90;;;;;;5097887;28;20477;-75
2022/03/10 07:24:19;;;;;;;20.48;10.82;;;-1.90;99.90;;;;;;5097697;28;20057;-74
2022/03/10 07:26:47;;;;;;;17.10;8.88;;;-1.80;99.90;;;;;;5097457;28;20400;-75
2022/03/10 07:29:15;;;;;;;21.95;10.02;;;-1.80;99.90;;;;;;5097748;28;20354;-75
2022/03/10 07:31:43;;;;;;;23.35;11.82;;;-1.60;99.90;;;;;;5098145;28;20073;-75
2022/03/10 07:34:12;;;;;;;26.55;10.15;;;-1.50;99.90;;;;;;5094716;28;20031;-74
2022/03/10 07:36:42;;;;;;;22.70;10.35;;;-1.40;99.90;;;;;;5097167;28;20417;-76
2022/03/10 07:39:11;;;;;;;19.95;9.88;;;-1.30;99.90;;;;;;5097047;28;20032;-75
2022/03/10 07:41:39;;;;;;;25.08;10.32;;;-1.20;99.90;;;;;;5098027;28;20016;-72
2022/03/10 07:44:06;;;;;;;16.38;9.10;;;-1.20;99.90;;;;;;5098791;28;20077;-72
2022/03/10 07:46:34;;;;;;;16.08;8.65;;;-1.10;99.90;;;;;;5096916;28;20387;-72
2022/03/10 07:49:03;;;;;;;14.23;7.60;;;-1.00;99.90;;;;;;5098525;28;20012;-72
2022/03/10 07:51:32;;;;;;;19.20;8.00;;;-0.90;99.90;;;;;;5097308;28;20027;-70
2022/03/10 07:54:00;;;;;;;17.67;9.15;;;-0.70;99.90;;;;;;5096172;28;20042;-70
2022/03/10 07:56:28;;;;;;;17.55;8.75;;;-0.60;99.90;;;;;;5095758;28;20024;-73
2022/03/10 07:58:55;;;;;;;17.58;8.23;;;-0.50;99.90;;;;;;5095837;28;20024;-72
2022/03/10 08:01:22;;;;;;;18.23;8.65;;;-0.40;99.90;;;;;;5097291;28;20023;-72
2022/03/10 08:03:50;;;;;;;18.60;9.50;;;-0.30;99.90;;;;;;5095889;28;20336;-71
2022/03/10 08:06:17;;;;;;;16.70;8.38;;;-0.10;99.90;;;;;;5097545;28;20371;-71
2022/03/10 08:08:44;;;;;;;19.23;9.60;;;0.00;99.90;;;;;;5096802;28;20052;-69
2022/03/10 08:11:12;;;;;;;17.05;7.93;;;0.10;99.90;;;;;;5096661;28;20024;-78
2022/03/10 08:13:40;;;;;;;24.27;7.95;;;0.30;99.90;;;;;;5097622;28;20095;-72
2022/03/10 08:16:08;;;;;;;16.08;6.93;;;0.40;99.90;;;;;;5096476;28;20426;-72
2022/03/10 08:18:35;;;;;;;22.65;8.75;;;0.60;99.90;;;;;;5084801;28;20049;-72
2022/03/10 08:21:03;;;;;;;20.83;7.53;;;0.70;99.90;;;;;;5077913;28;20031;-72
2022/03/10 08:23:31;;;;;;;17.20;7.32;;;0.80;99.90;;;;;;5077849;28;20020;-72
2022/03/10 08:26:00;;;;;;;17.27;7.35;;;1.00;99.90;;;;;;5059460;28;20115;-72
2022/03/10 08:28:28;;;;;;;16.52;7.57;;;1.10;99.90;;;;;;5077272;28;20025;-70
2022/03/10 08:30:56;;;;;;;15.23;7.30;;;1.30;99.90;;;;;;5077137;28;20117;-70
2022/03/10 08:33:24;;;;;;;13.68;6.10;;;1.50;99.90;;;;;;5058948;28;20323;-70
2022/03/10 08:35:52;;;;;;;14.80;6.45;;;1.60;99.90;;;;;;5076925;28;20074;-70
2022/03/10 08:38:21;;;;;;;13.45;6.70;;;1.70;99.90;;;;;;5076323;28;20112;-70
2022/03/10 08:40:48;;;;;;;13.40;6.60;;;1.80;99.90;;;;;;5076808;28;20145;-70
2022/03/10 08:43:16;;;;;;;12.02;5.90;;;2.00;99.90;;;;;;5076734;28;20082;-70
2022/03/10 08:45:44;;;;;;;11.38;6.15;;;2.10;99.90;;;;;;5076647;28;20025;-70
2022/03/10 08:48:11;;;;;;;14.45;7.05;;;2.30;99.90;;;;;;5076397;28;20029;-70
2022/03/10 08:50:39;;;;;;;13.10;7.00;;;2.40;99.90;;;;;;5058233;28;20052;-70
2022/03/10 08:53:07;;;;;;;11.43;6.75;;;2.50;99.90;;;;;;5076100;28;20099;-70
2022/03/10 08:55:35;;;;;;;12.77;6.60;;;2.70;99.90;;;;;;5076343;28;20025;-71
2022/03/10 08:58:03;;;;;;;13.07;6.65;;;2.90;99.90;;;;;;5077628;28;20019;-72
2022/03/10 09:00:30;;;;;;;18.80;9.43;;;3.00;99.90;;;;;;5059082;28;20029;-70
2022/03/10 09:02:58;;;;;;;16.25;6.72;;;3.20;99.90;;;;;;5077403;28;20085;-70
2022/03/10 09:05:25;;;;;;;13.80;6.20;;;3.30;99.90;;;;;;5077394;28;20020;-71
2022/03/10 09:07:53;;;;;;;10.43;6.22;;;3.50;99.90;;;;;;5077136;28;20108;-71
2022/03/10 09:10:21;;;;;;;14.65;7.35;;;3.60;99.90;;;;;;5076885;28;20025;-71
2022/03/10 09:12:49;;;;;;;12.93;7.68;;;3.70;99.90;;;;;;5077481;28;20027;-71
2022/03/10 09:15:17;;;;;;;13.85;7.10;;;3.70;99.90;;;;;;5078085;28;20174;-71
2022/03/10 09:17:44;;;;;;;17.35;6.85;;;3.80;99.90;;;;;;5076065;28;20044;-71
2022/03/10 09:20:13;;;;;;;16.67;6.18;;;3.90;99.90;;;;;;5077334;28;20052;-71
2022/03/10 09:22:42;;;;;;;16.25;7.50;;;3.90;99.90;;;;;;5075975;28;20016;-71
2022/03/10 09:25:09;;;;;;;10.98;5.65;;;4.00;99.90;;;;;;5075887;28;20035;-71
2022/03/10 09:27:40;;;;;;;14.20;5.93;;;4.10;99.90;;;;;;5076018;28;20023;-71
2022/03/10 09:30:10;;;;;;;11.93;6.20;;;4.20;99.90;;;;;;5077181;28;20024;-71
2022/03/10 09:32:40;;;;;;;9.95;5.55;;;4.30;99.90;;;;;;5079429;28;20024;-71
2022/03/10 09:35:09;;;;;;;11.85;5.45;;;4.40;99.90;;;;;;5079368;28;20029;-71
2022/03/10 09:37:37;;;;;;;11.13;5.85;;;4.50;99.90;;;;;;5079942;28;20090;-71
2022/03/10 09:40:05;;;;;;;12.80;5.82;;;4.50;99.90;;;;;;5080220;28;20028;-71
2022/03/10 09:42:34;;;;;;;10.48;4.93;;;4.70;99.90;;;;;;5062485;28;20103;-71
2022/03/10 09:45:04;;;;;;;9.52;4.13;;;4.80;99.90;;;;;;5062281;28;20112;-71
2022/03/10 09:47:32;;;;;;;8.07;4.05;;;5.00;99.90;;;;;;5080121;28;20523;-71
2022/03/10 09:50:05;;;;;;;9.13;5.93;;;5.20;99.90;;;;;;5080490;28;20024;-71
2022/03/10 09:52:33;;;;;;;9.18;4.47;;;5.70;99.90;;;;;;5080449;28;20028;-71
2022/03/10 09:55:00;;;;;;;9.27;5.10;;;6.10;99.90;;;;;;5079968;28;20017;-71
2022/03/10 09:57:29;;;;;;;7.85;3.97;;;6.40;99.90;;;;;;5080244;28;20051;-71
2022/03/10 10:00:00;;;;;;;8.02;3.50;;;6.50;99.90;;;;;;5078940;28;20017;-71
2022/03/10 10:02:29;;;;;;;7.15;3.65;;;6.80;97.80;;;;;;5078987;28;20017;-72
2022/03/10 10:04:57;;;;;;;6.70;4.20;;;7.10;95.50;;;;;;5079408;28;20020;-71
2022/03/10 10:07:29;;;;;;;6.45;3.42;;;7.30;93.80;;;;;;5078857;28;20032;-71
2022/03/10 10:09:58;;;;;;;7.45;3.70;;;7.60;91.20;;;;;;5079508;28;20301;-71
2022/03/10 10:12:31;;;;;;;10.05;3.90;;;7.80;90.40;;;;;;5078938;28;20095;-71
2022/03/10 10:15:00;;;;;;;7.00;4.25;;;7.90;91.00;;;;;;5078675;28;20048;-71
2022/03/10 10:17:32;;;;;;;8.82;3.90;;;8.00;90.40;;;;;;5078196;28;20055;-72
2022/03/10 10:20:01;;;;;;;9.23;3.80;;;7.90;89.80;;;;;;5078651;28;20021;-72
2022/03/10 10:22:30;;;;;;;7.05;3.55;;;7.90;90.00;;;;;;5079649;28;20436;-71
2022/03/10 10:25:06;;;;;;;6.72;3.75;;;7.90;88.10;;;;;;5061643;28;20027;-71
2022/03/10 10:27:34;;;;;;;;;;;8.00;85.50;;;;;;5079839;28;20016;-71
2022/03/10 10:30:06;;;;;;;6.90;3.78;;;8.20;85.20;;;;;;5079509;28;20317;-71
2022/03/10 10:32:48;;;;;;;8.15;3.95;;;8.30;85.50;;;;;;5061575;28;20016;-71
2022/03/10 10:35:21;;;;;;;13.05;4.22;;;8.30;85.20;;;;;;5079209;28;20024;-71
2022/03/10 10:37:51;;;;;;;9.35;4.05;;;8.50;85.00;;;;;;5079188;28;20294;-71
2022/03/10 10:40:24;;;;;;;8.15;4.22;;;8.60;85.10;;;;;;5078925;28;20020;-71
2022/03/10 10:42:52;;;;;;;6.65;3.97;;;8.70;83.20;;;;;;5078698;28;20107;-71
2022/03/10 10:45:56;;;;;;;7.75;4.30;;;8.80;81.40;;;;;;5077940;28;20099;-71
2022/03/10 10:48:24;;;;;;;6.07;3.67;;;8.90;77.40;;;;;;5036513;28;20040;-71
2022/03/10 10:50:53;;;;;;;10.10;3.78;;;9.00;77.90;;;;;;5077748;28;20071;-71
2022/03/10 10:53:31;;;;;;;9.13;4.22;;;9.10;76.30;;;;;;5060006;28;20436;-71
2022/03/10 10:55:59;;;;;;;8.13;4.15;;;9.30;74.00;;;;;;5078336;28;20024;-71
2022/03/10 10:58:27;;;;;;;8.45;5.18;;;9.40;74.30;;;;;;5059735;28;20025;-71
2022/03/10 11:00:54;;;;;;;13.80;5.90;;;9.50;72.20;;;;;;5077542;28;20021;-72
2022/03/10 11:03:23;;;;;;;10.60;4.82;;;9.70;72.40;;;;;;5077834;28;20020;-72
2022/03/10 11:05:51;;;;;;;12.88;6.03;;;9.90;70.90;;;;;;5060747;28;20095;-71
2022/03/10 11:08:21;;;;;;;17.55;6.85;;;10.00;70.70;;;;;;5078765;28;20032;-72
2022/03/10 11:10:50;;;;;;;7.15;3.70;;;10.00;70.60;;;;;;5078477;28;20044;-72
2022/03/10 11:13:18;;;;;;;12.45;5.30;;;10.10;70.10;;;;;;5060514;28;20021;-72
2022/03/10 11:15:47;;;;;;;12.15;4.28;;;10.00;70.10;;;;;;5078775;28;20024;-72
2022/03/10 11:18:15;;;;;;;6.85;3.85;;;10.00;71.10;;;;;;5078348;28;20509;-72
2022/03/10 11:20:51;;;;;;;13.77;6.32;;;10.00;71.30;;;;;;5078100;28;20033;-72
2022/03/10 11:23:45;;;;;;;14.48;4.93;;;10.00;70.60;;;;;;5077854;28;20024;-72
2022/03/10 11:26:30;;;;;;;9.30;4.40;;;10.20;70.30;;;;;;5059439;28;20134;-72
2022/03/10 11:28:59;;;;;;;11.27;5.35;;;10.40;67.50;;;;;;5077657;28;20025;-72
2022/03/10 11:31:30;;;;;;;12.07;5.35;;;10.50;65.70;;;;;;5059197;28;20028;-72
2022/03/10 11:33:58;;;;;;;10.15;5.50;;;10.60;66.10;;;;;;5077768;28;20031;-72
2022/03/10 11:36:29;;;;;;;9.77;4.57;;;10.60;66.10;;;;;;5077502;28;20051;-72
2022/03/10 11:39:05;;;;;;;10.25;4.80;;;10.60;66.40;;;;;;5077518;28;20332;-72
2022/03/10 11:41:53;;;;;;;16.42;6.50;;;10.70;65.30;;;;;;5076919;28;20051;-72
2022/03/10 11:44:23;;;;;;;8.98;4.78;;;10.70;64.80;;;;;;5076647;28;20045;-72
2022/03/10 11:46:57;;;;;;;10.02;5.07;;;10.90;64.40;;;;;;5077312;28;20104;-71
2022/03/10 11:49:39;;;;;;;14.02;6.80;;;10.90;64.20;;;;;;5078200;28;20095;-72
2022/03/10 11:52:23;;;;;;;12.98;4.72;;;10.80;63.90;;;;;;5077589;28;20028;-72
2022/03/10 11:55:13;;;;;;;11.27;5.60;;;10.80;63.60;;;;;;5059658;28;20025;-72
2022/03/10 11:57:54;;;;;;;10.32;4.43;;;11.00;63.60;;;;;;5077987;28;20435;-72
2022/03/10 12:00:49;;;;;;;13.45;8.48;;;11.30;60.80;;;;;;5059795;28;20032;-72
2022/03/10 12:03:36;;;;;;;12.88;5.03;;;11.50;59.80;;;;;;5078313;28;20017;-72
2022/03/10 12:06:08;;;;;;;11.38;5.38;;;11.70;58.50;;;;;;5077740;28;20025;-72
2022/03/10 12:08:42;;;;;;;14.27;6.07;;;11.70;59.30;;;;;;5076658;28;20031;-72
2022/03/10 12:11:21;;;;;;;8.32;5.07;;;11.70;59.60;;;;;;5076484;28;20162;-72
2022/03/10 12:13:49;;;;;;;10.77;5.88;;;11.80;59.20;;;;;;5076726;28;20091;-72
2022/03/10 12:16:26;;;;;;;10.15;4.57;;;11.90;58.10;;;;;;5076912;28;20016;-72
2022/03/10 12:18:54;;;;;;;10.57;5.30;;;12.00;57.70;;;;;;5076553;28;20037;-72
2022/03/10 12:21:23;;;;;;;9.88;4.78;;;12.10;57.90;;;;;;5076435;28;20031;-72
2022/03/10 12:23:55;;;;;;;15.48;6.35;;;12.10;58.90;;;;;;5076462;28;20028;-72
2022/03/10 12:26:34;;;;;;;9.45;5.47;;;12.20;56.40;;;;;;5076329;28;20025;-72
2022/03/10 12:29:07;;;;;;;12.85;5.03;;;12.20;57.30;;;;;;5059464;28;20123;-72
2022/03/10 12:31:37;;;;;;;17.33;5.90;;;12.20;57.00;;;;;;5077193;28;20149;-73
2022/03/10 12:34:07;;;;;;;10.55;5.03;;;12.30;56.30;;;;;;5059547;28;20023;-73
2022/03/10 12:36:54;;;;;;;10.88;5.30;;;12.30;56.50;;;;;;5059353;28;20020;-70
2022/03/10 12:39:27;;;;;;;9.65;4.57;;;12.30;57.40;;;;;;5076920;28;20016;-70
2022/03/10 12:42:01;;;;;;;8.20;4.63;;;12.30;55.30;;;;;;5077391;28;20028;-70
2022/03/10 12:44:30;;;;;;;9.55;4.35;;;12.30;54.80;;;;;;5077119;28;20107;-69
2022/03/10 12:47:01;;;;;;;9.13;5.10;;;12.30;55.20;;;;;;5076991;28;20100;-69
2022/03/10 12:49:38;;;;;;;9.02;4.90;;;12.30;54.30;;;;;;5058204;28;20025;-70
2022/03/10 12:52:11;;;;;;;8.45;4.75;;;12.30;54.40;;;;;;5058319;28;20044;-70
2022/03/10 12:54:40;;;;;;;8.70;4.72;;;12.40;55.00;;;;;;5076969;28;20483;-70